createdAt,value
2023-02-19T00:14:32.506Z,99283.25
2023-02-19T00:29:34.318Z,99283.25
2023-02-19T00:44:36.167Z,99288.84
2023-02-19T00:59:38.620Z,99273.94
2023-02-19T01:14:40.391Z,99270.00
2023-02-19T01:29:43.091Z,99254.63
2023-02-19T01:44:47.687Z,99258.88
2023-02-19T01:59:55.155Z,99242.09
2023-02-19T02:14:56.965Z,99258.97
2023-02-19T02:30:13.731Z,99271.69
2023-02-19T02:45:37.952Z,99270.81
2023-02-19T03:01:01.894Z,99281.63
2023-02-19T03:16:30.844Z,99300.97
2023-02-19T03:31:33.606Z,99306.16
2023-02-19T03:47:03.785Z,99324.88
2023-02-19T04:02:39.901Z,99317.66
2023-02-19T04:17:52.246Z,99316.66
2023-02-19T04:32:54.091Z,99297.84
2023-02-19T04:47:58.853Z,99306.63
2023-02-19T05:03:02.021Z,99314.09
2023-02-19T05:18:04.033Z,99327.38
2023-02-19T05:33:05.836Z,99355.59
2023-02-19T05:48:08.206Z,99335.47
2023-02-19T06:03:10.582Z,99338.81
2023-02-19T06:18:12.442Z,99314.38
2023-02-19T06:33:14.374Z,99330.38
2023-02-19T06:48:16.196Z,99355.00
2023-02-19T07:03:18.403Z,99329.72
2023-02-19T07:18:20.258Z,99338.75
2023-02-19T07:33:22.114Z,99339.78
2023-02-19T07:48:24.287Z,99352.56
2023-02-19T08:03:26.655Z,99356.63
2023-02-19T08:18:30.738Z,99363.41
2023-02-19T08:33:33.159Z,99389.16
2023-02-19T08:48:34.992Z,99400.72
2023-02-19T09:03:37.257Z,99398.25
2023-02-19T09:18:39.585Z,99411.50
2023-02-19T09:33:46.599Z,99400.69
2023-02-19T09:48:48.644Z,99373.66
2023-02-19T10:03:51.189Z,99370.81
2023-02-19T10:18:53.671Z,99364.63
2023-02-19T10:33:58.436Z,99356.75
2023-02-19T10:49:06.017Z,99361.53
2023-02-19T11:04:19.083Z,99373.53
2023-02-19T11:19:26.916Z,99375.81
2023-02-19T11:34:30.305Z,99356.00
2023-02-19T11:50:06.906Z,99372.78
2023-02-19T12:05:31.987Z,99383.56
2023-02-19T12:20:50.716Z,99386.81
2023-02-19T12:36:07.058Z,99365.66
2023-02-19T12:51:22.859Z,99398.00
2023-02-19T13:06:47.283Z,99395.63
2023-02-19T13:22:27.655Z,99393.16
2023-02-19T13:37:34.575Z,99412.25
2023-02-19T13:52:48.321Z,99396.06
2023-02-19T14:07:56.228Z,99378.25
2023-02-19T14:23:14.432Z,99382.31
2023-02-19T14:38:22.720Z,99382.06
2023-02-19T14:53:26.293Z,99369.16
2023-02-19T15:08:36.081Z,99373.09
2023-02-19T15:23:39.094Z,99388.34
2023-02-19T15:38:41.001Z,99391.22
2023-02-19T15:53:51.608Z,99400.00
2023-02-19T16:08:55.609Z,99400.97
2023-02-19T16:24:06.607Z,99409.78
2023-02-19T16:39:08.431Z,99411.47
2023-02-19T16:54:10.322Z,99418.06
2023-02-19T17:09:12.327Z,99432.50
2023-02-19T17:24:15.095Z,99442.69
2023-02-19T17:39:17.083Z,99443.41
2023-02-19T17:54:19.076Z,99446.31
2023-02-19T18:09:22.856Z,99460.09
2023-02-19T18:24:24.752Z,99462.50
2023-02-19T18:39:26.585Z,99468.66
2023-02-19T18:54:29.750Z,99470.94
2023-02-19T19:09:32.538Z,99472.09
2023-02-19T19:24:34.524Z,99455.09
2023-02-19T19:39:36.498Z,99446.81
2023-02-19T19:54:40.495Z,99447.66
2023-02-19T20:09:42.606Z,99453.19
2023-02-19T20:24:44.509Z,99432.69
2023-02-19T20:39:46.450Z,99444.50
2023-02-19T20:54:48.283Z,99437.72
2023-02-19T21:09:50.980Z,99445.28
2023-02-19T21:24:53.823Z,99440.47
2023-02-19T21:39:55.793Z,99434.44
2023-02-19T21:54:58.123Z,99446.19
2023-02-19T22:10:00.177Z,99449.59
2023-02-19T22:25:02.104Z,99441.00
2023-02-19T22:40:04.029Z,99434.16
2023-02-19T22:55:05.899Z,99420.69
2023-02-19T23:10:09.451Z,99422.13
2023-02-19T23:25:11.308Z,99448.31
2023-02-19T23:40:13.717Z,99439.72
2023-02-19T23:55:15.553Z,99420.47
